sensor_id;sensor_type;location;lat;lon;timestamp;P1;durP1;ratioP1;P2;durP2;ratioP2
5821;SDS011;2937;48.562;8.022;2023-02-11T00:00:06;34.33;;;17.50;;
5821;SDS011;2937;48.562;8.022;2023-02-11T00:04:59;33.93;;;18.73;;
5821;SDS011;2937;48.562;8.022;2023-02-11T00:09:52;32.30;;;17.30;;
5821;SDS011;2937;48.562;8.022;2023-02-11T00:14:46;30.87;;;17.67;;
5821;SDS011;2937;48.562;8.022;2023-02-11T00:19:39;29.53;;;16.53;;
5821;SDS011;2937;48.562;8.022;2023-02-11T00:24:32;34.63;;;17.67;;
5821;SDS011;2937;48.562;8.022;2023-02-11T00:29:24;33.20;;;17.80;;
5821;SDS011;2937;48.562;8.022;2023-02-11T00:34:18;31.60;;;17.70;;
5821;SDS011;2937;48.562;8.022;2023-02-11T00:39:11;38.63;;;19.23;;
5821;SDS011;2937;48.562;8.022;2023-02-11T00:44:03;40.40;;;20.20;;
5821;SDS011;2937;48.562;8.022;2023-02-11T00:48:56;36.50;;;19.87;;
5821;SDS011;2937;48.562;8.022;2023-02-11T00:53:50;39.63;;;20.53;;
5821;SDS011;2937;48.562;8.022;2023-02-11T00:58:43;41.00;;;21.53;;
5821;SDS011;2937;48.562;8.022;2023-02-11T01:03:35;41.43;;;22.00;;
5821;SDS011;2937;48.562;8.022;2023-02-11T01:08:28;37.23;;;19.30;;
5821;SDS011;2937;48.562;8.022;2023-02-11T01:13:22;34.20;;;17.33;;
5821;SDS011;2937;48.562;8.022;2023-02-11T01:18:17;33.70;;;17.03;;
5821;SDS011;2937;48.562;8.022;2023-02-11T01:23:12;31.00;;;18.83;;
5821;SDS011;2937;48.562;8.022;2023-02-11T01:28:10;36.30;;;18.40;;
5821;SDS011;2937;48.562;8.022;2023-02-11T01:33:05;38.37;;;18.00;;
5821;SDS011;2937;48.562;8.022;2023-02-11T01:37:57;36.87;;;19.27;;
5821;SDS011;2937;48.562;8.022;2023-02-11T01:42:50;37.37;;;17.30;;
5821;SDS011;2937;48.562;8.022;2023-02-11T01:47:43;34.00;;;18.70;;
5821;SDS011;2937;48.562;8.022;2023-02-11T01:52:39;32.83;;;18.60;;
5821;SDS011;2937;48.562;8.022;2023-02-11T01:57:33;33.90;;;16.80;;
5821;SDS011;2937;48.562;8.022;2023-02-11T02:02:31;29.67;;;15.50;;
5821;SDS011;2937;48.562;8.022;2023-02-11T02:07:27;33.53;;;16.00;;
5821;SDS011;2937;48.562;8.022;2023-02-11T02:12:25;30.50;;;15.90;;
5821;SDS011;2937;48.562;8.022;2023-02-11T02:17:22;28.17;;;15.43;;
5821;SDS011;2937;48.562;8.022;2023-02-11T02:22:30;25.23;;;13.30;;
5821;SDS011;2937;48.562;8.022;2023-02-11T02:27:40;24.93;;;13.57;;
5821;SDS011;2937;48.562;8.022;2023-02-11T02:32:40;26.23;;;14.20;;
5821;SDS011;2937;48.562;8.022;2023-02-11T02:37:35;26.90;;;13.47;;
5821;SDS011;2937;48.562;8.022;2023-02-11T02:42:29;27.43;;;15.20;;
5821;SDS011;2937;48.562;8.022;2023-02-11T02:47:23;28.60;;;15.10;;
5821;SDS011;2937;48.562;8.022;2023-02-11T02:52:20;33.90;;;17.30;;
5821;SDS011;2937;48.562;8.022;2023-02-11T02:57:19;33.00;;;16.80;;
5821;SDS011;2937;48.562;8.022;2023-02-11T03:02:17;30.20;;;16.30;;
5821;SDS011;2937;48.562;8.022;2023-02-11T03:07:11;28.77;;;15.20;;
5821;SDS011;2937;48.562;8.022;2023-02-11T03:12:11;26.13;;;15.60;;
5821;SDS011;2937;48.562;8.022;2023-02-11T03:17:05;27.07;;;14.40;;
5821;SDS011;2937;48.562;8.022;2023-02-11T03:22:00;29.77;;;15.90;;
5821;SDS011;2937;48.562;8.022;2023-02-11T03:26:55;29.73;;;16.27;;
5821;SDS011;2937;48.562;8.022;2023-02-11T03:31:55;23.33;;;12.40;;
5821;SDS011;2937;48.562;8.022;2023-02-11T03:36:50;26.30;;;13.10;;
5821;SDS011;2937;48.562;8.022;2023-02-11T03:41:45;22.50;;;12.80;;
5821;SDS011;2937;48.562;8.022;2023-02-11T03:46:39;22.10;;;13.00;;
5821;SDS011;2937;48.562;8.022;2023-02-11T03:51:36;23.07;;;12.40;;
5821;SDS011;2937;48.562;8.022;2023-02-11T03:56:35;16.83;;;10.10;;
5821;SDS011;2937;48.562;8.022;2023-02-11T04:01:29;18.73;;;10.90;;
5821;SDS011;2937;48.562;8.022;2023-02-11T04:06:25;21.53;;;10.83;;
5821;SDS011;2937;48.562;8.022;2023-02-11T04:11:19;20.30;;;11.23;;
5821;SDS011;2937;48.562;8.022;2023-02-11T04:16:12;21.57;;;12.13;;
5821;SDS011;2937;48.562;8.022;2023-02-11T04:21:08;23.77;;;13.17;;
5821;SDS011;2937;48.562;8.022;2023-02-11T04:26:01;22.10;;;12.23;;
5821;SDS011;2937;48.562;8.022;2023-02-11T04:30:55;26.10;;;12.70;;
5821;SDS011;2937;48.562;8.022;2023-02-11T04:35:48;22.60;;;12.10;;
5821;SDS011;2937;48.562;8.022;2023-02-11T04:40:41;23.20;;;12.83;;
5821;SDS011;2937;48.562;8.022;2023-02-11T04:45:34;23.13;;;12.60;;
5821;SDS011;2937;48.562;8.022;2023-02-11T04:50:28;25.07;;;13.90;;
5821;SDS011;2937;48.562;8.022;2023-02-11T04:55:21;23.03;;;13.10;;
5821;SDS011;2937;48.562;8.022;2023-02-11T05:00:14;27.93;;;14.40;;
5821;SDS011;2937;48.562;8.022;2023-02-11T05:05:08;21.90;;;13.60;;
5821;SDS011;2937;48.562;8.022;2023-02-11T05:10:02;19.83;;;11.50;;
5821;SDS011;2937;48.562;8.022;2023-02-11T05:14:58;21.40;;;11.67;;
5821;SDS011;2937;48.562;8.022;2023-02-11T05:19:51;20.47;;;12.20;;
5821;SDS011;2937;48.562;8.022;2023-02-11T05:24:44;25.33;;;13.50;;
5821;SDS011;2937;48.562;8.022;2023-02-11T05:29:38;24.67;;;14.50;;
5821;SDS011;2937;48.562;8.022;2023-02-11T05:34:31;29.70;;;15.67;;
5821;SDS011;2937;48.562;8.022;2023-02-11T05:39:26;38.87;;;19.40;;
5821;SDS011;2937;48.562;8.022;2023-02-11T05:44:18;34.17;;;19.23;;
5821;SDS011;2937;48.562;8.022;2023-02-11T05:49:13;43.10;;;24.23;;
5821;SDS011;2937;48.562;8.022;2023-02-11T05:54:08;44.23;;;23.50;;
5821;SDS011;2937;48.562;8.022;2023-02-11T05:59:01;41.43;;;23.13;;
5821;SDS011;2937;48.562;8.022;2023-02-11T06:03:54;39.93;;;22.47;;
5821;SDS011;2937;48.562;8.022;2023-02-11T06:08:48;40.97;;;21.80;;
5821;SDS011;2937;48.562;8.022;2023-02-11T06:13:41;43.40;;;23.00;;
5821;SDS011;2937;48.562;8.022;2023-02-11T06:18:34;43.10;;;22.43;;
5821;SDS011;2937;48.562;8.022;2023-02-11T06:23:27;39.10;;;21.47;;
5821;SDS011;2937;48.562;8.022;2023-02-11T06:28:22;43.90;;;23.20;;
5821;SDS011;2937;48.562;8.022;2023-02-11T06:33:15;42.87;;;24.47;;
5821;SDS011;2937;48.562;8.022;2023-02-11T06:38:08;51.33;;;26.80;;
5821;SDS011;2937;48.562;8.022;2023-02-11T06:43:02;44.87;;;25.13;;
5821;SDS011;2937;48.562;8.022;2023-02-11T06:47:56;46.10;;;25.57;;
5821;SDS011;2937;48.562;8.022;2023-02-11T06:52:49;53.23;;;27.70;;
5821;SDS011;2937;48.562;8.022;2023-02-11T06:57:43;50.73;;;27.57;;
5821;SDS011;2937;48.562;8.022;2023-02-11T07:02:36;49.17;;;25.30;;
5821;SDS011;2937;48.562;8.022;2023-02-11T07:07:30;41.60;;;23.37;;
5821;SDS011;2937;48.562;8.022;2023-02-11T07:12:24;41.80;;;23.23;;
5821;SDS011;2937;48.562;8.022;2023-02-11T07:17:17;42.27;;;21.90;;
5821;SDS011;2937;48.562;8.022;2023-02-11T07:22:10;44.37;;;22.30;;
5821;SDS011;2937;48.562;8.022;2023-02-11T07:27:07;60.00;;;28.33;;
5821;SDS011;2937;48.562;8.022;2023-02-11T07:32:00;58.70;;;30.30;;
5821;SDS011;2937;48.562;8.022;2023-02-11T07:36:59;50.53;;;26.60;;
5821;SDS011;2937;48.562;8.022;2023-02-11T07:41:52;44.93;;;25.37;;
5821;SDS011;2937;48.562;8.022;2023-02-11T07:46:47;48.17;;;25.17;;
5821;SDS011;2937;48.562;8.022;2023-02-11T07:51:40;49.67;;;25.60;;
5821;SDS011;2937;48.562;8.022;2023-02-11T07:56:33;48.63;;;24.43;;
5821;SDS011;2937;48.562;8.022;2023-02-11T08:01:25;46.70;;;24.10;;
5821;SDS011;2937;48.562;8.022;2023-02-11T08:06:21;45.60;;;23.20;;
5821;SDS011;2937;48.562;8.022;2023-02-11T08:11:15;42.23;;;21.80;;
5821;SDS011;2937;48.562;8.022;2023-02-11T08:16:08;37.80;;;22.00;;
5821;SDS011;2937;48.562;8.022;2023-02-11T08:21:03;41.23;;;22.00;;
5821;SDS011;2937;48.562;8.022;2023-02-11T08:26:00;39.10;;;23.10;;
5821;SDS011;2937;48.562;8.022;2023-02-11T08:30:53;42.33;;;23.77;;
5821;SDS011;2937;48.562;8.022;2023-02-11T08:35:45;41.73;;;26.37;;
5821;SDS011;2937;48.562;8.022;2023-02-11T08:40:38;41.33;;;27.20;;
5821;SDS011;2937;48.562;8.022;2023-02-11T08:45:32;70.60;;;45.20;;
5821;SDS011;2937;48.562;8.022;2023-02-11T08:50:25;58.07;;;39.60;;
5821;SDS011;2937;48.562;8.022;2023-02-11T08:55:18;42.93;;;28.50;;
5821;SDS011;2937;48.562;8.022;2023-02-11T09:00:11;37.13;;;26.00;;
5821;SDS011;2937;48.562;8.022;2023-02-11T09:05:06;37.10;;;25.60;;
5821;SDS011;2937;48.562;8.022;2023-02-11T09:09:59;41.90;;;27.57;;
5821;SDS011;2937;48.562;8.022;2023-02-11T09:14:52;42.40;;;28.77;;
5821;SDS011;2937;48.562;8.022;2023-02-11T09:19:44;44.03;;;28.20;;
5821;SDS011;2937;48.562;8.022;2023-02-11T09:24:38;41.03;;;28.13;;
5821;SDS011;2937;48.562;8.022;2023-02-11T09:29:31;51.00;;;34.93;;
5821;SDS011;2937;48.562;8.022;2023-02-11T09:34:23;68.13;;;45.30;;
5821;SDS011;2937;48.562;8.022;2023-02-11T09:39:16;45.13;;;30.37;;
5821;SDS011;2937;48.562;8.022;2023-02-11T09:44:16;34.80;;;24.07;;
5821;SDS011;2937;48.562;8.022;2023-02-11T09:49:10;34.27;;;23.60;;
5821;SDS011;2937;48.562;8.022;2023-02-11T09:54:09;34.67;;;24.50;;
5821;SDS011;2937;48.562;8.022;2023-02-11T09:59:03;39.27;;;25.00;;
5821;SDS011;2937;48.562;8.022;2023-02-11T10:04:00;33.93;;;22.30;;
5821;SDS011;2937;48.562;8.022;2023-02-11T10:08:58;31.30;;;21.60;;
5821;SDS011;2937;48.562;8.022;2023-02-11T10:13:55;39.27;;;28.07;;
5821;SDS011;2937;48.562;8.022;2023-02-11T10:18:56;34.00;;;24.33;;
5821;SDS011;2937;48.562;8.022;2023-02-11T10:23:53;41.53;;;28.67;;
5821;SDS011;2937;48.562;8.022;2023-02-11T10:28:48;43.33;;;29.30;;
5821;SDS011;2937;48.562;8.022;2023-02-11T10:33:43;45.03;;;30.67;;
5821;SDS011;2937;48.562;8.022;2023-02-11T10:38:38;44.07;;;30.70;;
5821;SDS011;2937;48.562;8.022;2023-02-11T10:43:32;49.87;;;33.73;;
5821;SDS011;2937;48.562;8.022;2023-02-11T10:48:38;49.00;;;32.70;;
5821;SDS011;2937;48.562;8.022;2023-02-11T10:53:31;48.80;;;34.00;;
5821;SDS011;2937;48.562;8.022;2023-02-11T10:58:24;54.33;;;37.50;;
5821;SDS011;2937;48.562;8.022;2023-02-11T11:03:20;55.00;;;38.80;;
5821;SDS011;2937;48.562;8.022;2023-02-11T11:08:13;55.07;;;38.27;;
5821;SDS011;2937;48.562;8.022;2023-02-11T11:13:07;54.10;;;35.33;;
5821;SDS011;2937;48.562;8.022;2023-02-11T11:18:12;50.50;;;34.30;;
5821;SDS011;2937;48.562;8.022;2023-02-11T11:23:16;48.30;;;33.00;;
5821;SDS011;2937;48.562;8.022;2023-02-11T11:28:16;48.60;;;34.60;;
5821;SDS011;2937;48.562;8.022;2023-02-11T11:33:13;44.90;;;31.73;;
5821;SDS011;2937;48.562;8.022;2023-02-11T11:38:10;44.60;;;30.83;;
5821;SDS011;2937;48.562;8.022;2023-02-11T11:43:14;46.17;;;31.57;;
5821;SDS011;2937;48.562;8.022;2023-02-11T11:48:13;43.83;;;29.13;;
5821;SDS011;2937;48.562;8.022;2023-02-11T11:53:11;40.23;;;27.97;;
5821;SDS011;2937;48.562;8.022;2023-02-11T11:58:08;38.63;;;27.93;;
5821;SDS011;2937;48.562;8.022;2023-02-11T12:03:16;39.70;;;26.43;;
5821;SDS011;2937;48.562;8.022;2023-02-11T12:08:15;38.30;;;27.47;;
5821;SDS011;2937;48.562;8.022;2023-02-11T12:13:17;35.40;;;24.23;;
5821;SDS011;2937;48.562;8.022;2023-02-11T12:18:15;32.40;;;25.07;;
5821;SDS011;2937;48.562;8.022;2023-02-11T12:23:13;30.80;;;23.70;;
5821;SDS011;2937;48.562;8.022;2023-02-11T12:28:18;23.77;;;18.20;;
5821;SDS011;2937;48.562;8.022;2023-02-11T12:33:15;24.73;;;16.30;;
5821;SDS011;2937;48.562;8.022;2023-02-11T12:38:21;22.70;;;16.20;;
5821;SDS011;2937;48.562;8.022;2023-02-11T12:43:21;20.13;;;14.93;;
5821;SDS011;2937;48.562;8.022;2023-02-11T12:48:22;22.27;;;15.60;;
5821;SDS011;2937;48.562;8.022;2023-02-11T12:53:24;20.43;;;15.70;;
5821;SDS011;2937;48.562;8.022;2023-02-11T12:58:22;21.23;;;16.37;;
5821;SDS011;2937;48.562;8.022;2023-02-11T13:03:34;20.87;;;16.90;;
5821;SDS011;2937;48.562;8.022;2023-02-11T13:08:29;22.97;;;15.80;;
5821;SDS011;2937;48.562;8.022;2023-02-11T13:13:25;20.30;;;15.40;;
5821;SDS011;2937;48.562;8.022;2023-02-11T13:23:33;20.13;;;16.00;;
5821;SDS011;2937;48.562;8.022;2023-02-11T13:28:33;22.33;;;16.30;;
5821;SDS011;2937;48.562;8.022;2023-02-11T13:33:31;24.50;;;16.53;;
5821;SDS011;2937;48.562;8.022;2023-02-11T13:38:25;23.60;;;16.10;;
5821;SDS011;2937;48.562;8.022;2023-02-11T13:43:19;20.60;;;16.23;;
5821;SDS011;2937;48.562;8.022;2023-02-11T13:48:16;22.23;;;17.00;;
5821;SDS011;2937;48.562;8.022;2023-02-11T13:53:09;21.97;;;17.63;;
5821;SDS011;2937;48.562;8.022;2023-02-11T13:58:17;23.07;;;17.17;;
5821;SDS011;2937;48.562;8.022;2023-02-11T14:08:36;26.10;;;20.67;;
5821;SDS011;2937;48.562;8.022;2023-02-11T14:19:10;29.20;;;20.83;;
5821;SDS011;2937;48.562;8.022;2023-02-11T14:29:22;30.10;;;20.63;;
5821;SDS011;2937;48.562;8.022;2023-02-11T14:34:22;28.03;;;19.77;;
5821;SDS011;2937;48.562;8.022;2023-02-11T14:39:24;27.17;;;20.20;;
5821;SDS011;2937;48.562;8.022;2023-02-11T14:44:42;48.47;;;30.53;;
5821;SDS011;2937;48.562;8.022;2023-02-11T14:49:41;28.67;;;20.30;;
5821;SDS011;2937;48.562;8.022;2023-02-11T14:54:36;24.93;;;19.60;;
5821;SDS011;2937;48.562;8.022;2023-02-11T14:59:36;30.93;;;20.63;;
5821;SDS011;2937;48.562;8.022;2023-02-11T15:04:34;27.97;;;20.40;;
5821;SDS011;2937;48.562;8.022;2023-02-11T15:09:31;31.40;;;20.37;;
5821;SDS011;2937;48.562;8.022;2023-02-11T15:14:25;36.37;;;26.17;;
5821;SDS011;2937;48.562;8.022;2023-02-11T15:19:20;31.97;;;22.80;;
5821;SDS011;2937;48.562;8.022;2023-02-11T15:35:34;34.70;;;20.93;;
5821;SDS011;2937;48.562;8.022;2023-02-11T15:40:35;31.90;;;22.23;;
5821;SDS011;2937;48.562;8.022;2023-02-11T15:45:33;32.60;;;21.40;;
5821;SDS011;2937;48.562;8.022;2023-02-11T15:50:30;32.73;;;22.20;;
5821;SDS011;2937;48.562;8.022;2023-02-11T15:55:27;38.23;;;23.47;;
5821;SDS011;2937;48.562;8.022;2023-02-11T16:00:21;67.27;;;36.03;;
5821;SDS011;2937;48.562;8.022;2023-02-11T16:05:23;56.70;;;34.47;;
5821;SDS011;2937;48.562;8.022;2023-02-11T16:10:18;43.10;;;26.27;;
5821;SDS011;2937;48.562;8.022;2023-02-11T16:15:29;37.83;;;23.93;;
5821;SDS011;2937;48.562;8.022;2023-02-11T16:20:22;37.97;;;24.07;;
5821;SDS011;2937;48.562;8.022;2023-02-11T16:25:15;41.00;;;24.03;;
5821;SDS011;2937;48.562;8.022;2023-02-11T16:30:19;37.13;;;22.50;;
5821;SDS011;2937;48.562;8.022;2023-02-11T16:35:15;35.53;;;21.10;;
5821;SDS011;2937;48.562;8.022;2023-02-11T16:40:08;35.47;;;21.27;;
5821;SDS011;2937;48.562;8.022;2023-02-11T16:45:02;38.47;;;21.90;;
5821;SDS011;2937;48.562;8.022;2023-02-11T16:49:55;40.20;;;24.43;;
5821;SDS011;2937;48.562;8.022;2023-02-11T16:54:49;60.77;;;28.83;;
5821;SDS011;2937;48.562;8.022;2023-02-11T16:59:42;50.73;;;25.87;;
5821;SDS011;2937;48.562;8.022;2023-02-11T17:04:35;131.23;;;80.13;;
5821;SDS011;2937;48.562;8.022;2023-02-11T17:09:27;38.73;;;20.50;;
5821;SDS011;2937;48.562;8.022;2023-02-11T17:14:23;38.77;;;21.43;;
5821;SDS011;2937;48.562;8.022;2023-02-11T17:19:16;43.77;;;25.80;;
5821;SDS011;2937;48.562;8.022;2023-02-11T17:24:12;38.10;;;21.80;;
5821;SDS011;2937;48.562;8.022;2023-02-11T17:29:05;41.10;;;22.30;;
5821;SDS011;2937;48.562;8.022;2023-02-11T17:33:59;63.87;;;32.87;;
5821;SDS011;2937;48.562;8.022;2023-02-11T17:38:53;63.73;;;34.37;;
5821;SDS011;2937;48.562;8.022;2023-02-11T17:43:46;49.00;;;27.07;;
5821;SDS011;2937;48.562;8.022;2023-02-11T17:48:38;45.47;;;24.77;;
5821;SDS011;2937;48.562;8.022;2023-02-11T17:53:32;47.70;;;25.37;;
5821;SDS011;2937;48.562;8.022;2023-02-11T17:58:25;41.40;;;24.80;;
5821;SDS011;2937;48.562;8.022;2023-02-11T18:03:18;47.23;;;26.47;;
5821;SDS011;2937;48.562;8.022;2023-02-11T18:08:10;42.43;;;25.07;;
5821;SDS011;2937;48.562;8.022;2023-02-11T18:13:04;42.90;;;25.50;;
5821;SDS011;2937;48.562;8.022;2023-02-11T18:17:57;38.90;;;22.33;;
5821;SDS011;2937;48.562;8.022;2023-02-11T18:22:49;40.03;;;22.97;;
5821;SDS011;2937;48.562;8.022;2023-02-11T18:27:42;38.63;;;21.80;;
5821;SDS011;2937;48.562;8.022;2023-02-11T18:32:36;55.23;;;31.20;;
5821;SDS011;2937;48.562;8.022;2023-02-11T18:37:29;51.33;;;28.70;;
5821;SDS011;2937;48.562;8.022;2023-02-11T18:42:21;42.83;;;23.27;;
5821;SDS011;2937;48.562;8.022;2023-02-11T18:47:14;36.90;;;22.80;;
5821;SDS011;2937;48.562;8.022;2023-02-11T18:52:08;42.70;;;23.63;;
5821;SDS011;2937;48.562;8.022;2023-02-11T18:57:01;39.17;;;22.67;;
5821;SDS011;2937;48.562;8.022;2023-02-11T19:01:53;35.13;;;19.37;;
5821;SDS011;2937;48.562;8.022;2023-02-11T19:06:46;26.03;;;16.77;;
5821;SDS011;2937;48.562;8.022;2023-02-11T19:11:41;41.20;;;24.00;;
5821;SDS011;2937;48.562;8.022;2023-02-11T19:16:41;141.83;;;74.07;;
5821;SDS011;2937;48.562;8.022;2023-02-11T19:21:34;167.80;;;79.10;;
5821;SDS011;2937;48.562;8.022;2023-02-11T19:26:27;39.30;;;23.37;;
5821;SDS011;2937;48.562;8.022;2023-02-11T19:31:22;54.07;;;35.47;;
5821;SDS011;2937;48.562;8.022;2023-02-11T19:36:14;54.00;;;35.80;;
5821;SDS011;2937;48.562;8.022;2023-02-11T19:41:08;63.33;;;46.03;;
5821;SDS011;2937;48.562;8.022;2023-02-11T19:46:01;34.87;;;21.43;;
5821;SDS011;2937;48.562;8.022;2023-02-11T19:50:56;34.00;;;22.20;;
5821;SDS011;2937;48.562;8.022;2023-02-11T19:55:49;57.10;;;39.60;;
5821;SDS011;2937;48.562;8.022;2023-02-11T20:00:42;44.10;;;25.77;;
5821;SDS011;2937;48.562;8.022;2023-02-11T20:05:37;51.47;;;33.27;;
5821;SDS011;2937;48.562;8.022;2023-02-11T20:10:32;47.77;;;28.87;;
5821;SDS011;2937;48.562;8.022;2023-02-11T20:15:25;62.10;;;45.73;;
5821;SDS011;2937;48.562;8.022;2023-02-11T20:20:18;49.47;;;38.63;;
5821;SDS011;2937;48.562;8.022;2023-02-11T20:25:11;30.27;;;20.23;;
5821;SDS011;2937;48.562;8.022;2023-02-11T20:30:06;41.97;;;30.43;;
5821;SDS011;2937;48.562;8.022;2023-02-11T20:34:59;35.30;;;21.40;;
5821;SDS011;2937;48.562;8.022;2023-02-11T20:39:52;36.60;;;22.03;;
5821;SDS011;2937;48.562;8.022;2023-02-11T20:44:45;44.43;;;25.27;;
5821;SDS011;2937;48.562;8.022;2023-02-11T20:49:40;38.17;;;21.50;;
5821;SDS011;2937;48.562;8.022;2023-02-11T20:54:35;31.03;;;18.87;;
5821;SDS011;2937;48.562;8.022;2023-02-11T20:59:28;36.57;;;22.30;;
5821;SDS011;2937;48.562;8.022;2023-02-11T21:04:22;34.87;;;23.00;;
5821;SDS011;2937;48.562;8.022;2023-02-11T21:09:18;34.53;;;22.07;;
5821;SDS011;2937;48.562;8.022;2023-02-11T21:14:11;35.10;;;22.30;;
5821;SDS011;2937;48.562;8.022;2023-02-11T21:19:05;34.77;;;20.00;;
5821;SDS011;2937;48.562;8.022;2023-02-11T21:23:58;31.70;;;18.90;;
5821;SDS011;2937;48.562;8.022;2023-02-11T21:28:53;33.43;;;19.90;;
5821;SDS011;2937;48.562;8.022;2023-02-11T21:33:46;33.83;;;22.33;;
5821;SDS011;2937;48.562;8.022;2023-02-11T21:38:48;40.93;;;25.80;;
5821;SDS011;2937;48.562;8.022;2023-02-11T21:43:44;42.13;;;25.93;;
5821;SDS011;2937;48.562;8.022;2023-02-11T21:48:38;44.50;;;26.03;;
5821;SDS011;2937;48.562;8.022;2023-02-11T21:53:31;36.93;;;22.20;;
5821;SDS011;2937;48.562;8.022;2023-02-11T21:58:27;34.20;;;19.20;;
5821;SDS011;2937;48.562;8.022;2023-02-11T22:03:20;33.97;;;22.07;;
5821;SDS011;2937;48.562;8.022;2023-02-11T22:08:14;38.40;;;24.10;;
5821;SDS011;2937;48.562;8.022;2023-02-11T22:13:10;38.07;;;24.33;;
5821;SDS011;2937;48.562;8.022;2023-02-11T22:18:03;42.50;;;26.30;;
5821;SDS011;2937;48.562;8.022;2023-02-11T22:22:57;38.63;;;24.10;;
5821;SDS011;2937;48.562;8.022;2023-02-11T22:27:51;34.60;;;22.27;;
5821;SDS011;2937;48.562;8.022;2023-02-11T22:32:44;31.73;;;18.90;;
5821;SDS011;2937;48.562;8.022;2023-02-11T22:37:37;36.97;;;21.67;;
5821;SDS011;2937;48.562;8.022;2023-02-11T22:42:31;38.40;;;23.40;;
5821;SDS011;2937;48.562;8.022;2023-02-11T22:47:26;46.10;;;27.47;;
5821;SDS011;2937;48.562;8.022;2023-02-11T22:52:18;35.80;;;23.53;;
5821;SDS011;2937;48.562;8.022;2023-02-11T22:57:12;31.93;;;19.43;;
5821;SDS011;2937;48.562;8.022;2023-02-11T23:02:05;28.50;;;18.50;;
5821;SDS011;2937;48.562;8.022;2023-02-11T23:06:59;32.80;;;20.90;;
5821;SDS011;2937;48.562;8.022;2023-02-11T23:11:52;34.93;;;22.83;;
5821;SDS011;2937;48.562;8.022;2023-02-11T23:16:46;36.67;;;24.30;;
5821;SDS011;2937;48.562;8.022;2023-02-11T23:21:41;41.33;;;25.87;;
5821;SDS011;2937;48.562;8.022;2023-02-11T23:26:35;41.67;;;28.23;;
5821;SDS011;2937;48.562;8.022;2023-02-11T23:31:30;43.97;;;28.33;;
5821;SDS011;2937;48.562;8.022;2023-02-11T23:36:24;32.30;;;23.27;;
5821;SDS011;2937;48.562;8.022;2023-02-11T23:41:18;42.13;;;26.67;;
5821;SDS011;2937;48.562;8.022;2023-02-11T23:46:12;36.03;;;23.87;;
5821;SDS011;2937;48.562;8.022;2023-02-11T23:51:05;36.20;;;24.80;;
5821;SDS011;2937;48.562;8.022;2023-02-11T23:56:00;29.53;;;20.43;;
